Time;durP1;ratioP1;P1;durP2;ratioP2;P2;SDS_P1;SDS_P2;PMS_P1;PMS_P2;Temp;Humidity;BMP_temperature;BMP_pressure;BME280_temperature;BME280_humidity;BME280_pressure;Samples;Min_cycle;Max_cycle;Signal;HPM_P1;HPM_P2
2023/08/06 00:01:03;;;;;;;2.58;2.37;;;18.60;97.70;;;;;;955410;146;27335;-73
2023/08/06 00:03:29;;;;;;;2.55;2.40;;;18.60;97.60;;;;;;939427;148;27342;-73
2023/08/06 00:05:56;;;;;;;3.00;2.80;;;18.60;97.80;;;;;;958918;145;27285;-73
2023/08/06 00:08:22;;;;;;;2.80;2.60;;;18.60;98.10;;;;;;951220;146;27361;-73
2023/08/06 00:10:49;;;;;;;2.55;2.35;;;18.60;98.20;;;;;;950742;146;27351;-73
2023/08/06 00:13:15;;;;;;;2.67;2.47;;;18.60;98.20;;;;;;941940;148;27377;-74
2023/08/06 00:15:42;;;;;;;2.85;2.65;;;18.60;98.20;;;;;;953004;146;27301;-73
2023/08/06 00:18:09;;;;;;;2.72;2.40;;;18.60;98.30;;;;;;954061;148;27447;-73
2023/08/06 00:20:35;;;;;;;3.37;2.62;;;18.60;98.40;;;;;;953091;148;27672;-73
2023/08/06 00:23:02;;;;;;;2.52;2.15;;;18.60;98.40;;;;;;952344;148;27356;-74
2023/08/06 00:25:28;;;;;;;2.25;2.15;;;18.60;98.60;;;;;;953056;146;27309;-73
2023/08/06 00:27:56;;;;;;;2.50;2.30;;;18.60;98.70;;;;;;951586;149;28216;-73
2023/08/06 00:30:22;;;;;;;2.58;2.37;;;18.60;98.80;;;;;;950892;148;27315;-73
2023/08/06 00:32:49;;;;;;;2.40;2.22;;;18.60;99.00;;;;;;951101;148;27477;-73
2023/08/06 00:35:15;;;;;;;2.30;2.20;;;18.60;99.10;;;;;;951243;146;27335;-73
2023/08/06 00:37:41;;;;;;;2.67;2.40;;;18.60;99.20;;;;;;951373;146;27333;-73
2023/08/06 00:40:08;;;;;;;2.60;2.40;;;18.60;99.20;;;;;;952301;146;27280;-73
2023/08/06 00:42:35;;;;;;;3.25;2.58;;;18.60;99.20;;;;;;952477;146;27348;-73
2023/08/06 00:45:01;;;;;;;3.72;2.52;;;18.60;99.30;;;;;;954058;147;27412;-73
2023/08/06 00:47:28;;;;;;;2.45;2.25;;;18.60;99.40;;;;;;952087;147;27324;-73
2023/08/06 00:49:54;;;;;;;2.60;2.40;;;18.50;99.50;;;;;;952601;146;27348;-73
2023/08/06 00:52:21;;;;;;;2.42;2.25;;;18.50;99.50;;;;;;947887;146;27419;-73
2023/08/06 00:54:48;;;;;;;2.50;2.02;;;18.50;99.50;;;;;;949830;146;27450;-73
2023/08/06 00:57:14;;;;;;;2.20;2.10;;;18.50;99.60;;;;;;948542;146;27349;-76
2023/08/06 00:59:41;;;;;;;3.70;2.45;;;18.50;99.60;;;;;;948688;147;27373;-75
2023/08/06 01:02:07;;;;;;;3.45;2.40;;;18.50;99.60;;;;;;950238;146;27485;-76
2023/08/06 01:04:34;;;;;;;2.55;2.35;;;18.50;99.60;;;;;;948438;146;27313;-75
2023/08/06 01:07:22;;;;;;;2.45;2.25;;;18.50;99.80;;;;;;950081;146;27353;-76
2023/08/06 01:09:57;;;;;;;2.70;2.50;;;18.50;99.90;;;;;;947845;149;27372;-75
2023/08/06 01:12:42;;;;;;;2.58;2.35;;;18.40;99.80;;;;;;948280;146;27369;-76
2023/08/06 01:15:11;;;;;;;2.60;2.40;;;18.40;99.90;;;;;;948896;146;27234;-74
2023/08/06 01:17:38;;;;;;;2.55;2.35;;;18.40;99.90;;;;;;949812;146;27353;-74
2023/08/06 01:20:04;;;;;;;2.50;2.30;;;18.40;99.90;;;;;;950859;146;27944;-75
2023/08/06 01:22:31;;;;;;;3.00;2.08;;;18.40;99.90;;;;;;946612;146;27434;-75
2023/08/06 01:24:58;;;;;;;2.60;2.40;;;18.40;99.90;;;;;;951165;146;27429;-75
2023/08/06 01:27:24;;;;;;;3.62;2.70;;;18.30;99.90;;;;;;949036;146;27427;-75
2023/08/06 01:30:03;;;;;;;5.83;2.80;;;18.40;99.90;;;;;;950979;149;27342;-75
2023/08/06 01:32:29;;;;;;;2.30;2.12;;;18.30;99.90;;;;;;949062;146;27320;-74
2023/08/06 01:34:56;;;;;;;2.60;2.40;;;18.40;99.90;;;;;;948714;146;27415;-75
2023/08/06 01:37:22;;;;;;;2.15;2.02;;;18.30;99.90;;;;;;948137;146;27452;-75
2023/08/06 01:39:49;;;;;;;2.15;2.05;;;18.30;99.90;;;;;;949532;146;27399;-75
2023/08/06 01:42:15;;;;;;;4.45;2.52;;;18.30;99.90;;;;;;949719;146;27420;-75
2023/08/06 01:44:42;;;;;;;2.77;2.58;;;18.30;99.90;;;;;;948392;146;27394;-75
2023/08/06 01:47:08;;;;;;;2.62;2.42;;;18.30;99.90;;;;;;950520;146;27257;-74
2023/08/06 01:49:35;;;;;;;2.72;2.52;;;18.30;99.90;;;;;;947840;149;27431;-75
2023/08/06 01:52:02;;;;;;;2.90;2.42;;;18.30;99.90;;;;;;952681;146;27457;-75
2023/08/06 01:54:28;;;;;;;2.70;2.50;;;18.30;99.90;;;;;;965087;144;27361;-75
2023/08/06 01:56:55;;;;;;;3.67;2.50;;;18.30;99.90;;;;;;957733;145;27392;-75
2023/08/06 01:59:21;;;;;;;2.60;2.40;;;18.30;99.90;;;;;;959421;145;27308;-74
2023/08/06 02:01:48;;;;;;;2.40;2.27;;;18.30;99.90;;;;;;959894;145;27349;-74
2023/08/06 02:04:15;;;;;;;3.40;2.45;;;18.30;99.90;;;;;;959478;145;27383;-75
2023/08/06 02:06:41;;;;;;;2.33;2.20;;;18.30;99.90;;;;;;959774;145;27459;-75
2023/08/06 02:09:08;;;;;;;2.62;2.42;;;18.30;99.90;;;;;;959147;145;27463;-74
2023/08/06 02:11:34;;;;;;;3.35;2.20;;;18.30;99.90;;;;;;958904;145;27431;-74
2023/08/06 02:14:01;;;;;;;3.80;2.40;;;18.30;99.90;;;;;;959643;145;27435;-75
2023/08/06 02:16:28;;;;;;;2.55;2.35;;;18.20;99.90;;;;;;956622;145;27850;-74
2023/08/06 02:18:54;;;;;;;2.92;2.65;;;18.20;99.90;;;;;;960022;145;27343;-75
2023/08/06 02:21:21;;;;;;;2.70;2.50;;;18.20;99.90;;;;;;959511;145;27343;-75
2023/08/06 02:23:47;;;;;;;2.47;2.27;;;18.20;99.90;;;;;;958803;145;27416;-75
2023/08/06 02:26:14;;;;;;;3.25;2.95;;;18.20;99.90;;;;;;958380;145;27436;-75
2023/08/06 02:28:41;;;;;;;2.72;2.22;;;18.20;99.90;;;;;;959963;145;27426;-75
2023/08/06 02:31:07;;;;;;;3.33;2.60;;;18.20;99.90;;;;;;959290;145;27287;-71
2023/08/06 02:33:34;;;;;;;2.47;2.27;;;18.20;99.90;;;;;;958186;145;27433;-73
2023/08/06 02:36:01;;;;;;;2.50;2.30;;;18.20;99.90;;;;;;958373;145;27396;-74
2023/08/06 02:38:27;;;;;;;2.75;2.55;;;18.20;99.90;;;;;;958874;145;27476;-74
2023/08/06 02:40:53;;;;;;;2.10;1.90;;;18.20;99.90;;;;;;959479;145;27266;-72
2023/08/06 02:43:20;;;;;;;2.17;2.00;;;18.20;99.90;;;;;;960187;145;27357;-73
2023/08/06 02:45:47;;;;;;;2.47;2.27;;;18.20;99.90;;;;;;960366;145;27353;-74
2023/08/06 02:48:13;;;;;;;2.15;1.98;;;18.20;99.90;;;;;;959191;145;27413;-72
2023/08/06 02:50:40;;;;;;;3.70;2.40;;;18.20;99.90;;;;;;959752;145;27282;-71
2023/08/06 02:53:06;;;;;;;2.10;2.00;;;18.20;99.90;;;;;;953362;145;27775;-73
2023/08/06 02:55:33;;;;;;;2.42;2.22;;;18.20;99.90;;;;;;956031;145;27363;-72
2023/08/06 02:58:00;;;;;;;2.35;2.15;;;18.20;99.90;;;;;;959092;145;27312;-74
2023/08/06 03:00:26;;;;;;;3.08;2.35;;;18.20;99.90;;;;;;957206;145;27353;-72
2023/08/06 03:02:53;;;;;;;3.37;2.33;;;18.20;99.90;;;;;;958739;145;27390;-72
2023/08/06 03:05:19;;;;;;;2.37;2.17;;;18.20;99.90;;;;;;958321;145;27280;-71
2023/08/06 03:07:46;;;;;;;6.92;3.20;;;18.20;99.90;;;;;;957549;145;27375;-73
2023/08/06 03:10:13;;;;;;;1.82;1.72;;;18.20;99.90;;;;;;959926;145;27358;-71
2023/08/06 03:12:39;;;;;;;2.80;2.10;;;18.10;99.90;;;;;;960692;145;27368;-73
2023/08/06 03:15:06;;;;;;;3.08;2.77;;;18.10;99.90;;;;;;960823;145;27414;-72
2023/08/06 03:17:32;;;;;;;2.83;2.00;;;18.10;99.90;;;;;;958607;145;27709;-72
2023/08/06 03:19:59;;;;;;;2.27;2.15;;;18.00;99.90;;;;;;958356;145;27329;-74
2023/08/06 03:22:26;;;;;;;2.50;2.30;;;18.00;99.90;;;;;;959748;145;27415;-71
2023/08/06 03:24:52;;;;;;;2.98;2.52;;;18.10;99.90;;;;;;959957;145;28806;-71
2023/08/06 03:27:19;;;;;;;2.58;2.30;;;18.00;99.90;;;;;;958915;145;27337;-71
2023/08/06 03:29:45;;;;;;;2.25;2.12;;;18.00;99.90;;;;;;960593;145;27311;-72
2023/08/06 03:32:12;;;;;;;2.33;2.12;;;18.00;99.90;;;;;;958852;145;27373;-72
2023/08/06 03:34:39;;;;;;;2.47;2.27;;;18.00;99.90;;;;;;959876;145;27333;-72
2023/08/06 03:37:05;;;;;;;2.00;1.90;;;17.90;99.90;;;;;;957248;145;27426;-72
2023/08/06 03:39:32;;;;;;;1.98;1.87;;;17.90;99.90;;;;;;959435;145;27356;-72
2023/08/06 03:41:58;;;;;;;1.92;1.82;;;17.90;99.90;;;;;;957958;145;27414;-73
2023/08/06 03:44:26;;;;;;;2.77;2.08;;;17.80;99.90;;;;;;959695;145;27502;-73
2023/08/06 03:46:52;;;;;;;1.90;1.80;;;17.80;99.90;;;;;;959399;145;27369;-73
2023/08/06 03:49:18;;;;;;;2.08;1.87;;;17.70;99.90;;;;;;957374;145;27366;-73
2023/08/06 03:51:45;;;;;;;2.33;2.12;;;17.70;99.90;;;;;;960535;145;27340;-73
2023/08/06 03:54:11;;;;;;;2.20;2.10;;;17.60;99.90;;;;;;960103;145;27350;-73
2023/08/06 03:56:38;;;;;;;2.33;2.10;;;17.60;99.90;;;;;;959296;145;28718;-73
2023/08/06 03:59:04;;;;;;;2.00;1.90;;;17.50;99.90;;;;;;958326;145;27366;-73
2023/08/06 04:01:31;;;;;;;2.77;2.08;;;17.50;99.90;;;;;;961162;145;27399;-73
2023/08/06 04:03:58;;;;;;;4.53;2.00;;;17.40;99.90;;;;;;965568;144;27381;-73
2023/08/06 04:06:24;;;;;;;1.98;1.87;;;17.40;99.90;;;;;;965160;144;27844;-73
2023/08/06 04:08:51;;;;;;;1.87;1.77;;;17.30;99.90;;;;;;967838;144;27371;-73
2023/08/06 04:11:17;;;;;;;2.30;2.10;;;17.30;99.90;;;;;;964876;144;27348;-74
2023/08/06 04:13:44;;;;;;;2.33;2.10;;;17.20;99.90;;;;;;966009;144;27381;-73
2023/08/06 04:16:11;;;;;;;2.10;1.95;;;17.20;99.90;;;;;;965382;144;27383;-73
2023/08/06 04:18:37;;;;;;;2.02;1.85;;;17.20;99.90;;;;;;966219;144;27375;-74
2023/08/06 04:21:04;;;;;;;2.30;2.10;;;17.10;99.90;;;;;;967521;144;27428;-73
2023/08/06 04:23:30;;;;;;;3.92;2.17;;;17.10;99.90;;;;;;966483;144;27303;-73
2023/08/06 04:25:57;;;;;;;2.50;2.30;;;17.00;99.90;;;;;;967340;144;27678;-74
2023/08/06 04:28:24;;;;;;;2.72;1.77;;;17.00;99.90;;;;;;965995;144;27370;-73
2023/08/06 04:30:50;;;;;;;3.60;2.30;;;17.00;99.90;;;;;;966499;144;27406;-73
2023/08/06 04:33:17;;;;;;;4.45;1.98;;;17.00;99.90;;;;;;966570;144;27363;-73
2023/08/06 04:35:43;;;;;;;3.58;2.10;;;17.00;99.90;;;;;;966277;144;27313;-73
2023/08/06 04:38:10;;;;;;;3.10;2.00;;;17.00;99.90;;;;;;967829;144;27350;-73
2023/08/06 04:40:36;;;;;;;2.45;2.25;;;17.10;99.90;;;;;;966524;144;27386;-73
2023/08/06 04:43:03;;;;;;;2.25;2.00;;;17.10;99.90;;;;;;963989;144;27808;-74
2023/08/06 04:45:30;;;;;;;2.47;1.80;;;17.20;99.90;;;;;;968822;144;27307;-73
2023/08/06 04:47:56;;;;;;;1.92;1.80;;;17.30;99.90;;;;;;963992;144;27839;-73
2023/08/06 04:50:23;;;;;;;2.20;1.80;;;17.40;99.90;;;;;;967276;144;27342;-71
2023/08/06 04:52:49;;;;;;;2.00;1.82;;;17.50;99.90;;;;;;965801;144;27743;-71
2023/08/06 04:55:16;;;;;;;2.40;1.80;;;17.60;99.90;;;;;;963509;144;27418;-72
2023/08/06 04:57:43;;;;;;;2.45;1.87;;;17.70;99.90;;;;;;953699;146;27408;-71
2023/08/06 05:00:09;;;;;;;2.05;1.70;;;17.80;99.90;;;;;;932809;149;27358;-74
2023/08/06 05:02:38;;;;;;;1.50;1.40;;;17.90;99.90;;;;;;932873;149;27391;-73
2023/08/06 05:05:02;;;;;;;2.15;1.95;;;17.90;99.90;;;;;;924130;153;27414;-72
2023/08/06 05:07:29;;;;;;;2.50;1.50;;;17.90;99.90;;;;;;954300;146;27289;-72
2023/08/06 05:09:56;;;;;;;2.37;1.40;;;17.90;99.90;;;;;;929324;152;27330;-73
2023/08/06 05:12:22;;;;;;;2.30;1.70;;;17.90;99.90;;;;;;929338;152;27365;-75
2023/08/06 05:14:49;;;;;;;1.65;1.55;;;17.90;99.90;;;;;;932527;149;27765;-71
2023/08/06 05:17:15;;;;;;;2.00;1.80;;;17.90;99.90;;;;;;931900;149;27296;-71
2023/08/06 05:19:42;;;;;;;2.05;1.87;;;17.90;99.90;;;;;;927934;153;27358;-72
2023/08/06 05:22:08;;;;;;;3.37;1.65;;;17.90;99.90;;;;;;926959;150;27351;-75
2023/08/06 05:24:35;;;;;;;2.00;1.90;;;17.90;99.90;;;;;;928785;150;27507;-71
2023/08/06 05:27:02;;;;;;;2.85;1.80;;;17.90;99.90;;;;;;922028;153;27311;-72
2023/08/06 05:29:28;;;;;;;1.82;1.72;;;17.90;99.90;;;;;;933030;149;27343;-72
2023/08/06 05:31:55;;;;;;;1.72;1.60;;;17.90;99.90;;;;;;926786;153;27355;-73
2023/08/06 05:34:21;;;;;;;1.70;1.60;;;17.90;99.90;;;;;;927228;152;27352;-71
2023/08/06 05:36:48;;;;;;;1.75;1.62;;;17.90;99.90;;;;;;927130;153;27827;-72
2023/08/06 05:39:15;;;;;;;3.10;1.80;;;17.90;99.90;;;;;;926514;152;27336;-72
2023/08/06 05:41:41;;;;;;;1.72;1.50;;;17.90;99.90;;;;;;925324;150;27357;-72
2023/08/06 05:44:08;;;;;;;2.00;1.57;;;18.00;99.90;;;;;;926605;152;27310;-73
2023/08/06 05:46:34;;;;;;;2.77;1.95;;;18.00;99.90;;;;;;926872;153;27442;-72
2023/08/06 05:49:01;;;;;;;3.40;1.47;;;18.00;99.90;;;;;;926966;152;27332;-72
2023/08/06 05:51:28;;;;;;;2.72;1.55;;;18.00;99.90;;;;;;926305;153;27348;-72
2023/08/06 05:53:54;;;;;;;1.52;1.40;;;18.10;99.90;;;;;;926730;153;27323;-72
2023/08/06 05:56:21;;;;;;;1.65;1.40;;;18.10;99.90;;;;;;937633;147;27808;-74
2023/08/06 05:58:48;;;;;;;2.02;1.30;;;18.20;99.90;;;;;;950568;147;27365;-73
2023/08/06 06:01:14;;;;;;;2.25;1.60;;;18.20;99.90;;;;;;950178;146;27409;-74
2023/08/06 06:03:41;;;;;;;1.67;1.27;;;18.20;99.90;;;;;;950448;146;27406;-72
2023/08/06 06:06:07;;;;;;;1.32;1.10;;;18.30;99.90;;;;;;936075;149;27286;-73
2023/08/06 06:08:34;;;;;;;1.92;1.57;;;18.30;99.90;;;;;;938651;148;27515;-74
2023/08/06 06:11:00;;;;;;;1.85;1.22;;;18.30;99.90;;;;;;936419;148;27463;-73
2023/08/06 06:13:27;;;;;;;1.85;1.00;;;18.30;99.90;;;;;;954135;146;27401;-73
2023/08/06 06:15:56;;;;;;;1.75;1.02;;;18.40;99.90;;;;;;953977;146;27260;-74
2023/08/06 06:18:23;;;;;;;1.07;0.95;;;18.40;99.90;;;;;;953061;146;27416;-73
2023/08/06 06:20:50;;;;;;;0.90;0.90;;;18.40;99.90;;;;;;953028;146;27455;-74
2023/08/06 06:23:16;;;;;;;0.80;0.80;;;18.50;99.90;;;;;;954516;146;28039;-73
2023/08/06 06:25:49;;;;;;;1.02;0.93;;;18.50;99.90;;;;;;952746;146;27357;-74
2023/08/06 06:28:15;;;;;;;2.47;0.80;;;18.50;99.90;;;;;;953438;146;27349;-74
2023/08/06 06:30:42;;;;;;;1.80;0.90;;;18.60;99.90;;;;;;954090;146;27317;-74
2023/08/06 06:33:09;;;;;;;1.27;0.90;;;18.60;99.90;;;;;;953722;146;27473;-73
2023/08/06 06:35:35;;;;;;;0.90;0.90;;;18.60;99.90;;;;;;954344;146;27396;-74
2023/08/06 06:38:02;;;;;;;1.20;1.10;;;18.60;99.90;;;;;;952118;146;27347;-74
2023/08/06 06:40:28;;;;;;;1.00;1.00;;;18.70;99.90;;;;;;937102;148;27378;-74
2023/08/06 06:42:55;;;;;;;0.82;0.82;;;18.70;99.90;;;;;;936475;148;27362;-75
2023/08/06 06:45:22;;;;;;;1.02;0.93;;;18.80;99.90;;;;;;952907;146;27445;-73
2023/08/06 06:47:48;;;;;;;0.95;0.95;;;19.00;99.90;;;;;;957729;145;27326;-73
2023/08/06 06:50:15;;;;;;;0.70;0.70;;;19.10;99.90;;;;;;955607;146;27337;-74
2023/08/06 06:52:41;;;;;;;1.35;0.88;;;19.30;99.90;;;;;;937645;148;27443;-74
2023/08/06 06:55:08;;;;;;;0.78;0.78;;;19.50;99.90;;;;;;934593;147;27336;-74
2023/08/06 06:57:35;;;;;;;1.22;0.82;;;19.80;99.90;;;;;;957594;145;27498;-74
2023/08/06 07:00:01;;;;;;;0.47;0.47;;;20.00;99.90;;;;;;942642;147;27330;-74
2023/08/06 07:02:28;;;;;;;2.55;0.90;;;20.30;99.90;;;;;;941328;147;27324;-74
2023/08/06 07:04:54;;;;;;;0.72;0.72;;;20.50;99.90;;;;;;946568;147;27285;-74
2023/08/06 07:07:21;;;;;;;0.95;0.80;;;20.80;99.90;;;;;;960699;145;27411;-74
2023/08/06 07:09:47;;;;;;;0.98;0.85;;;21.00;99.90;;;;;;961033;145;27367;-72
2023/08/06 07:12:14;;;;;;;0.72;0.68;;;21.10;99.90;;;;;;960463;145;27309;-73
2023/08/06 07:14:41;;;;;;;0.85;0.80;;;21.20;99.90;;;;;;961613;145;27376;-75
2023/08/06 07:17:07;;;;;;;0.55;0.55;;;21.30;99.90;;;;;;960713;145;27383;-75
2023/08/06 07:19:34;;;;;;;0.42;0.42;;;21.30;99.90;;;;;;962336;145;27407;-72
2023/08/06 07:22:00;;;;;;;0.70;0.70;;;21.30;99.90;;;;;;960932;145;27340;-73
2023/08/06 07:24:27;;;;;;;0.82;0.82;;;21.30;99.90;;;;;;962340;145;27398;-73
2023/08/06 07:26:54;;;;;;;0.62;0.62;;;21.20;99.90;;;;;;962063;145;27375;-72
2023/08/06 07:29:22;;;;;;;0.62;0.62;;;21.20;99.90;;;;;;962805;145;27437;-75
2023/08/06 07:31:47;;;;;;;0.70;0.70;;;21.20;99.90;;;;;;962173;145;27383;-73
2023/08/06 07:34:13;;;;;;;0.70;0.70;;;21.30;99.90;;;;;;962153;145;27437;-73
2023/08/06 07:36:40;;;;;;;0.50;0.50;;;21.30;99.90;;;;;;962077;145;27355;-75
2023/08/06 07:39:07;;;;;;;1.87;0.98;;;21.30;99.90;;;;;;960657;145;27373;-73
2023/08/06 07:41:33;;;;;;;0.68;0.30;;;21.30;99.90;;;;;;959843;145;27424;-73
2023/08/06 07:44:00;;;;;;;1.10;0.47;;;21.30;99.90;;;;;;962312;145;27333;-73
2023/08/06 07:46:26;;;;;;;0.82;0.40;;;21.30;99.90;;;;;;961242;145;27348;-73
2023/08/06 07:48:53;;;;;;;0.30;0.30;;;21.30;99.90;;;;;;961999;145;27365;-74
2023/08/06 07:51:20;;;;;;;0.40;0.40;;;21.40;99.90;;;;;;961366;145;27855;-72
2023/08/06 07:53:46;;;;;;;0.82;0.40;;;21.30;99.90;;;;;;962314;145;27319;-73
2023/08/06 07:56:13;;;;;;;0.50;0.50;;;21.30;99.70;;;;;;961590;145;27273;-72
2023/08/06 07:58:39;;;;;;;0.40;0.40;;;21.30;99.40;;;;;;952858;145;27403;-74
2023/08/06 08:01:06;;;;;;;1.67;0.57;;;21.30;99.50;;;;;;955481;146;27467;-73
2023/08/06 08:03:32;;;;;;;2.17;0.50;;;21.20;99.80;;;;;;953719;146;28326;-75
2023/08/06 08:05:59;;;;;;;0.50;0.50;;;21.20;99.90;;;;;;954007;146;27352;-73
2023/08/06 08:08:26;;;;;;;1.65;0.60;;;21.20;99.60;;;;;;951960;146;27401;-73
2023/08/06 08:10:52;;;;;;;0.50;0.50;;;21.20;99.70;;;;;;952387;146;27293;-74
2023/08/06 08:13:19;;;;;;;0.40;0.40;;;21.20;99.20;;;;;;955491;146;27448;-72
2023/08/06 08:15:45;;;;;;;0.30;0.30;;;21.20;99.10;;;;;;953793;146;27419;-73
2023/08/06 08:18:15;;;;;;;0.23;0.23;;;21.20;99.50;;;;;;953324;146;27891;-72
2023/08/06 08:20:41;;;;;;;0.20;0.20;;;21.20;99.40;;;;;;952157;146;27488;-75
2023/08/06 08:23:08;;;;;;;0.33;0.33;;;21.20;99.30;;;;;;952307;146;27361;-75
2023/08/06 08:25:35;;;;;;;0.40;0.40;;;21.20;99.30;;;;;;952774;146;27387;-74
2023/08/06 08:28:01;;;;;;;0.30;0.30;;;21.20;99.30;;;;;;952552;146;27437;-74
2023/08/06 08:30:28;;;;;;;0.40;0.40;;;21.30;99.60;;;;;;953410;146;27339;-75
2023/08/06 08:32:54;;;;;;;0.37;0.37;;;21.30;99.70;;;;;;953456;146;27490;-74
2023/08/06 08:35:21;;;;;;;0.68;0.47;;;21.30;99.40;;;;;;953056;146;27350;-75
2023/08/06 08:37:48;;;;;;;0.88;0.72;;;21.30;99.30;;;;;;953010;146;27447;-75
2023/08/06 08:40:14;;;;;;;0.82;0.82;;;21.40;98.80;;;;;;953023;146;27354;-74
2023/08/06 08:42:41;;;;;;;0.50;0.50;;;21.40;98.70;;;;;;952163;146;27391;-74
2023/08/06 08:45:08;;;;;;;1.00;1.00;;;21.40;99.20;;;;;;952687;146;27372;-75
2023/08/06 08:47:34;;;;;;;0.75;0.65;;;21.40;99.00;;;;;;951865;146;27364;-74
2023/08/06 08:50:00;;;;;;;1.60;1.15;;;21.40;99.40;;;;;;952254;146;27303;-74
2023/08/06 08:52:30;;;;;;;0.62;0.62;;;21.50;99.60;;;;;;954875;146;27310;-74
2023/08/06 08:54:54;;;;;;;1.60;0.40;;;21.50;99.80;;;;;;952064;146;27850;-74
2023/08/06 08:57:20;;;;;;;0.40;0.40;;;21.70;99.90;;;;;;954742;146;27471;-75
2023/08/06 08:59:47;;;;;;;0.42;0.35;;;21.80;99.90;;;;;;924545;153;27252;-74
2023/08/06 09:02:13;;;;;;;1.85;0.50;;;22.10;99.90;;;;;;928812;150;27312;-74
2023/08/06 09:04:40;;;;;;;0.37;0.37;;;22.40;99.90;;;;;;923613;153;27397;-75
2023/08/06 09:07:07;;;;;;;0.50;0.40;;;22.90;99.90;;;;;;928169;150;27470;-74
2023/08/06 09:09:33;;;;;;;0.53;0.53;;;23.30;99.90;;;;;;928350;150;27494;-75
2023/08/06 09:12:03;;;;;;;0.33;0.33;;;23.80;99.90;;;;;;928043;150;27445;-75
2023/08/06 09:14:29;;;;;;;0.40;0.40;;;24.40;99.90;;;;;;928384;150;27404;-75
2023/08/06 09:16:57;;;;;;;0.55;0.55;;;25.00;99.90;;;;;;922396;153;27369;-75
2023/08/06 09:19:23;;;;;;;0.45;0.37;;;25.60;98.80;;;;;;928041;150;27812;-75
2023/08/06 09:21:49;;;;;;;0.53;0.37;;;26.20;96.30;;;;;;928672;150;27443;-75
2023/08/06 09:24:16;;;;;;;0.33;0.30;;;26.80;93.70;;;;;;928868;150;27310;-75
2023/08/06 09:26:42;;;;;;;0.82;0.50;;;27.40;91.10;;;;;;922165;153;27328;-75
2023/08/06 09:29:11;;;;;;;0.45;0.30;;;27.90;91.20;;;;;;929488;150;27408;-76
2023/08/06 09:31:48;;;;;;;0.42;0.23;;;28.50;88.80;;;;;;924320;153;27318;-76
2023/08/06 09:34:17;;;;;;;0.70;0.55;;;29.10;84.50;;;;;;925827;150;27535;-76
2023/08/06 09:36:44;;;;;;;0.33;0.25;;;29.70;80.80;;;;;;929529;150;27445;-76
2023/08/06 09:39:14;;;;;;;0.20;0.20;;;30.20;77.80;;;;;;928212;150;27460;-76
2023/08/06 09:41:40;;;;;;;0.13;0.13;;;30.60;76.10;;;;;;922827;153;27393;-76
2023/08/06 09:44:07;;;;;;;0.37;0.37;;;31.10;73.30;;;;;;929754;150;27427;-76
2023/08/06 09:46:33;;;;;;;0.13;0.13;;;31.50;70.80;;;;;;921384;153;27446;-76
2023/08/06 09:49:01;;;;;;;0.17;0.10;;;31.80;68.40;;;;;;926458;150;27854;-76
2023/08/06 09:51:26;;;;;;;0.20;0.20;;;32.10;67.70;;;;;;929309;152;26262;-76
2023/08/06 09:53:53;;;;;;;0.30;0.20;;;32.40;67.00;;;;;;909656;153;27415;-76
2023/08/06 09:56:20;;;;;;;0.10;0.10;;;32.60;65.40;;;;;;925838;153;27915;-76
2023/08/06 09:58:46;;;;;;;0.20;0.20;;;32.80;63.30;;;;;;933688;146;27431;-76
2023/08/06 10:01:13;;;;;;;0.10;0.10;;;32.70;60.80;;;;;;945254;146;27353;-76
2023/08/06 10:03:39;;;;;;;0.10;0.10;;;32.70;59.50;;;;;;945948;146;27398;-76
2023/08/06 10:06:08;;;;;;;0.10;0.10;;;32.40;58.80;;;;;;944479;146;27827;-76
2023/08/06 10:08:33;;;;;;;0.00;0.00;;;32.10;58.50;;;;;;942986;146;27323;-76
2023/08/06 10:10:59;;;;;;;0.10;0.10;;;31.80;58.40;;;;;;936864;148;26272;-76
2023/08/06 10:13:26;;;;;;;0.08;0.03;;;31.50;58.00;;;;;;953619;146;27316;-76
2023/08/06 10:15:52;;;;;;;1.55;0.20;;;31.20;58.10;;;;;;952680;146;27338;-76
2023/08/06 10:18:21;;;;;;;0.23;0.20;;;30.90;58.40;;;;;;954497;146;27432;-76
2023/08/06 10:20:46;;;;;;;0.10;0.10;;;30.70;58.40;;;;;;954558;146;27349;-76
2023/08/06 10:23:13;;;;;;;0.10;0.10;;;30.40;58.40;;;;;;953596;146;27401;-76
2023/08/06 10:25:42;;;;;;;0.20;0.20;;;30.20;58.70;;;;;;954106;146;27374;-76
2023/08/06 10:28:13;;;;;;;0.20;0.10;;;30.10;59.10;;;;;;953289;146;27331;-76
2023/08/06 10:30:46;;;;;;;0.70;0.40;;;30.00;59.40;;;;;;953109;146;27913;-76
2023/08/06 10:33:13;;;;;;;0.72;0.10;;;29.80;60.00;;;;;;955642;146;27355;-76
2023/08/06 10:35:45;;;;;;;0.30;0.30;;;29.60;59.30;;;;;;953903;146;27505;-76
2023/08/06 10:38:25;;;;;;;0.50;0.30;;;29.10;58.40;;;;;;953275;146;27351;-75
2023/08/06 10:40:52;;;;;;;0.47;0.40;;;28.40;58.00;;;;;;951620;146;27699;-75
2023/08/06 10:43:25;;;;;;;0.20;0.20;;;27.70;58.50;;;;;;954959;146;27470;-74
2023/08/06 10:45:52;;;;;;;0.15;0.15;;;26.90;59.10;;;;;;953330;146;27425;-73
2023/08/06 10:48:36;;;;;;;0.20;0.20;;;26.10;59.80;;;;;;953010;146;27349;-73
2023/08/06 10:51:03;;;;;;;0.05;0.05;;;25.40;60.90;;;;;;951437;146;27321;-74
2023/08/06 10:53:29;;;;;;;0.17;0.17;;;24.80;62.50;;;;;;951922;146;27464;-75
2023/08/06 10:55:56;;;;;;;0.42;0.30;;;24.30;63.70;;;;;;953594;146;27368;-72
2023/08/06 10:58:23;;;;;;;0.20;0.20;;;23.80;65.00;;;;;;953357;146;27427;-73
2023/08/06 11:00:49;;;;;;;0.75;0.47;;;23.50;66.30;;;;;;954530;146;27390;-75
2023/08/06 11:03:16;;;;;;;0.35;0.35;;;23.20;67.70;;;;;;955055;146;27328;-74
2023/08/06 11:05:42;;;;;;;0.75;0.40;;;23.00;69.00;;;;;;953423;146;27367;-73
2023/08/06 11:08:09;;;;;;;4.30;1.20;;;22.90;70.70;;;;;;953502;146;27741;-74
2023/08/06 11:10:36;;;;;;;0.17;0.17;;;22.80;72.50;;;;;;955029;146;27366;-73
2023/08/06 11:13:02;;;;;;;0.30;0.20;;;22.90;74.10;;;;;;953019;146;27433;-72
2023/08/06 11:15:29;;;;;;;0.45;0.20;;;23.00;75.80;;;;;;953245;146;27438;-75
2023/08/06 11:17:55;;;;;;;0.30;0.30;;;23.20;77.40;;;;;;953575;146;27366;-73
2023/08/06 11:20:25;;;;;;;0.40;0.20;;;23.40;79.10;;;;;;954780;146;27311;-74
2023/08/06 11:22:51;;;;;;;0.40;0.40;;;23.60;81.10;;;;;;952476;146;27698;-73
2023/08/06 11:25:18;;;;;;;0.40;0.40;;;23.90;80.20;;;;;;953607;146;27328;-76
2023/08/06 11:27:44;;;;;;;0.40;0.30;;;24.10;80.10;;;;;;953844;146;27443;-73
2023/08/06 11:30:11;;;;;;;0.40;0.40;;;24.30;81.50;;;;;;953771;146;27441;-72
2023/08/06 11:32:49;;;;;;;0.30;0.30;;;24.60;81.30;;;;;;953349;146;27350;-73
2023/08/06 11:35:13;;;;;;;0.20;0.13;;;24.80;80.10;;;;;;951197;146;27699;-74
2023/08/06 11:37:40;;;;;;;0.10;0.10;;;25.00;79.20;;;;;;951637;146;27367;-74
2023/08/06 11:40:06;;;;;;;0.20;0.20;;;25.20;78.80;;;;;;952037;146;27371;-73
2023/08/06 11:42:33;;;;;;;1.02;0.30;;;25.20;77.20;;;;;;954543;146;27243;-73
2023/08/06 11:44:59;;;;;;;0.42;0.30;;;25.20;76.10;;;;;;953603;146;27475;-74
2023/08/06 11:47:26;;;;;;;0.30;0.20;;;25.20;75.30;;;;;;955020;146;27343;-75
2023/08/06 11:49:53;;;;;;;0.10;0.10;;;25.20;75.70;;;;;;952436;146;27357;-76
2023/08/06 11:52:23;;;;;;;0.28;0.28;;;25.30;76.80;;;;;;952767;146;27242;-75
2023/08/06 11:55:06;;;;;;;0.20;0.20;;;25.30;77.20;;;;;;952402;146;27355;-76
2023/08/06 11:57:35;;;;;;;1.90;0.33;;;25.40;76.70;;;;;;950751;146;27369;-75
2023/08/06 12:00:06;;;;;;;0.35;0.20;;;25.50;75.00;;;;;;954485;146;27428;-76
2023/08/06 12:02:37;;;;;;;0.20;0.20;;;25.50;73.40;;;;;;955543;145;27288;-75
2023/08/06 12:05:02;;;;;;;0.15;0.15;;;25.40;72.40;;;;;;954520;145;27342;-75
2023/08/06 12:07:34;;;;;;;0.25;0.23;;;25.30;72.50;;;;;;954467;146;27492;-75
2023/08/06 12:10:01;;;;;;;0.40;0.37;;;25.20;71.70;;;;;;956196;148;27386;-76
2023/08/06 12:12:27;;;;;;;0.57;0.30;;;25.00;71.30;;;;;;956006;145;27342;-76
2023/08/06 12:14:54;;;;;;;0.30;0.30;;;24.80;71.20;;;;;;955852;145;27288;-76
2023/08/06 12:17:20;;;;;;;1.55;0.30;;;24.50;71.50;;;;;;937170;148;27408;-76
2023/08/06 12:19:47;;;;;;;0.72;0.33;;;24.20;71.80;;;;;;936811;148;27374;-76
2023/08/06 12:22:14;;;;;;;0.20;0.20;;;23.90;72.00;;;;;;958234;148;27348;-76
2023/08/06 12:24:43;;;;;;;0.08;0.08;;;23.60;72.80;;;;;;955464;148;27337;-75
2023/08/06 12:27:09;;;;;;;1.27;0.20;;;23.30;73.10;;;;;;955565;148;27279;-75
2023/08/06 12:29:36;;;;;;;0.20;0.20;;;23.00;74.10;;;;;;956059;145;27313;-76
2023/08/06 12:32:03;;;;;;;0.20;0.20;;;22.80;75.30;;;;;;955694;148;27380;-75
2023/08/06 12:34:35;;;;;;;0.10;0.10;;;22.60;76.70;;;;;;950004;148;27382;-75
2023/08/06 12:37:02;;;;;;;0.40;0.40;;;22.40;77.80;;;;;;956148;145;28171;-75
2023/08/06 12:39:29;;;;;;;0.28;0.20;;;22.30;79.10;;;;;;954485;148;27349;-75
2023/08/06 12:41:57;;;;;;;0.20;0.20;;;22.20;78.90;;;;;;956314;148;27367;-75
2023/08/06 12:44:22;;;;;;;0.30;0.30;;;22.00;80.40;;;;;;955273;148;27456;-75
2023/08/06 12:46:48;;;;;;;0.15;0.15;;;21.90;80.80;;;;;;938475;148;27355;-75